sensor_id;sensor_type;location;lat;lon;timestamp;pressure;altitude;pressure_sealevel;temperature;humidity
15314;BME280;7757;52.626;4.746;2023-03-14T00:01:58;98530.50;;;16.92;60.45
15314;BME280;7757;52.626;4.746;2023-03-14T00:04:44;98535.38;;;16.90;60.63
15314;BME280;7757;52.626;4.746;2023-03-14T00:07:29;98533.19;;;16.92;60.36
15314;BME280;7757;52.626;4.746;2023-03-14T00:10:23;98521.06;;;16.90;60.86
15314;BME280;7757;52.626;4.746;2023-03-14T00:13:08;98511.91;;;16.91;60.78
15314;BME280;7757;52.626;4.746;2023-03-14T00:15:53;98517.06;;;16.87;60.97
15314;BME280;7757;52.626;4.746;2023-03-14T00:18:39;98499.03;;;16.83;60.42
15314;BME280;7757;52.626;4.746;2023-03-14T00:21:24;98507.63;;;16.85;60.46
15314;BME280;7757;52.626;4.746;2023-03-14T00:24:10;98511.66;;;16.87;60.50
15314;BME280;7757;52.626;4.746;2023-03-14T00:26:56;98507.63;;;16.85;60.31
15314;BME280;7757;52.626;4.746;2023-03-14T00:29:42;98508.44;;;16.85;60.30
15314;BME280;7757;52.626;4.746;2023-03-14T00:32:27;98515.44;;;16.86;60.80
15314;BME280;7757;52.626;4.746;2023-03-14T00:35:13;98502.50;;;16.83;60.84
15314;BME280;7757;52.626;4.746;2023-03-14T00:37:58;98505.19;;;16.83;60.29
15314;BME280;7757;52.626;4.746;2023-03-14T00:40:43;98507.63;;;16.85;61.02
15314;BME280;7757;52.626;4.746;2023-03-14T00:43:30;98520.31;;;16.84;60.89
15314;BME280;7757;52.626;4.746;2023-03-14T00:46:16;98506.56;;;16.81;60.67
15314;BME280;7757;52.626;4.746;2023-03-14T00:49:01;98511.97;;;16.81;60.50
15314;BME280;7757;52.626;4.746;2023-03-14T00:51:46;98501.47;;;16.79;60.58
15314;BME280;7757;52.626;4.746;2023-03-14T00:54:32;98504.97;;;16.80;60.18
15314;BME280;7757;52.626;4.746;2023-03-14T00:57:17;98506.56;;;16.81;60.98
15314;BME280;7757;52.626;4.746;2023-03-14T01:00:05;98497.41;;;16.82;60.35
15314;BME280;7757;52.626;4.746;2023-03-14T01:02:52;98496.59;;;16.81;60.43
15314;BME280;7757;52.626;4.746;2023-03-14T01:05:37;98485.84;;;16.76;60.60
15314;BME280;7757;52.626;4.746;2023-03-14T01:08:22;98499.84;;;16.78;60.26
15314;BME280;7757;52.626;4.746;2023-03-14T01:11:09;98492.84;;;16.77;60.72
15314;BME280;7757;52.626;4.746;2023-03-14T01:13:55;98495.00;;;16.75;60.71
15314;BME280;7757;52.626;4.746;2023-03-14T01:16:41;98488.81;;;16.74;60.77
15314;BME280;7757;52.626;4.746;2023-03-14T01:19:27;98493.69;;;16.72;60.49
15314;BME280;7757;52.626;4.746;2023-03-14T01:22:13;98510.13;;;16.76;60.55
15314;BME280;7757;52.626;4.746;2023-03-14T01:24:58;98500.16;;;16.71;61.04
15314;BME280;7757;52.626;4.746;2023-03-14T01:27:44;98514.72;;;16.76;60.41
15314;BME280;7757;52.626;4.746;2023-03-14T01:30:29;98514.22;;;16.73;60.96
15314;BME280;7757;52.626;4.746;2023-03-14T01:33:16;98507.69;;;16.74;60.26
15314;BME280;7757;52.626;4.746;2023-03-14T01:36:02;98504.19;;;16.74;60.99
15314;BME280;7757;52.626;4.746;2023-03-14T01:38:47;98506.09;;;16.73;61.20
15314;BME280;7757;52.626;4.746;2023-03-14T01:41:33;98488.00;;;16.74;60.33
15314;BME280;7757;52.626;4.746;2023-03-14T01:44:18;98492.63;;;16.73;60.86
15314;BME280;7757;52.626;4.746;2023-03-14T01:47:03;98495.88;;;16.70;60.56
15314;BME280;7757;52.626;4.746;2023-03-14T01:49:55;98502.88;;;16.71;60.74
15314;BME280;7757;52.626;4.746;2023-03-14T01:52:44;98492.06;;;16.71;60.81
15314;BME280;7757;52.626;4.746;2023-03-14T01:55:31;98498.56;;;16.70;61.17
15314;BME280;7757;52.626;4.746;2023-03-14T01:58:17;98504.25;;;16.69;60.30
15314;BME280;7757;52.626;4.746;2023-03-14T02:01:04;98497.25;;;16.68;60.54
15314;BME280;7757;52.626;4.746;2023-03-14T02:03:52;98479.75;;;16.60;60.72
15314;BME280;7757;52.626;4.746;2023-03-14T02:06:46;98493.75;;;16.67;60.66
15314;BME280;7757;52.626;4.746;2023-03-14T02:09:34;98500.53;;;16.65;60.97
15314;BME280;7757;52.626;4.746;2023-03-14T02:12:20;98492.94;;;16.67;60.47
15314;BME280;7757;52.626;4.746;2023-03-14T02:15:07;98486.47;;;16.68;60.35
15314;BME280;7757;52.626;4.746;2023-03-14T02:17:53;98492.41;;;16.65;60.38
15314;BME280;7757;52.626;4.746;2023-03-14T02:20:42;98486.22;;;16.64;60.17
15314;BME280;7757;52.626;4.746;2023-03-14T02:23:37;98482.97;;;16.62;60.90
15314;BME280;7757;52.626;4.746;2023-03-14T02:26:28;98478.38;;;16.63;61.03
15314;BME280;7757;52.626;4.746;2023-03-14T02:29:18;98492.16;;;16.61;60.37
15314;BME280;7757;52.626;4.746;2023-03-14T02:32:04;98473.53;;;16.60;60.35
15314;BME280;7757;52.626;4.746;2023-03-14T02:34:52;98474.09;;;16.62;61.10
15314;BME280;7757;52.626;4.746;2023-03-14T02:37:43;98465.19;;;16.61;60.54
15314;BME280;7757;52.626;4.746;2023-03-14T02:40:30;98462.00;;;16.54;60.78
15314;BME280;7757;52.626;4.746;2023-03-14T02:43:16;98452.00;;;16.55;61.24
15314;BME280;7757;52.626;4.746;2023-03-14T02:46:05;98460.59;;;16.62;60.94
15314;BME280;7757;52.626;4.746;2023-03-14T02:48:53;98452.53;;;16.57;60.69
15314;BME280;7757;52.626;4.746;2023-03-14T02:51:41;98449.81;;;16.57;60.72
15314;BME280;7757;52.626;4.746;2023-03-14T02:54:28;98449.00;;;16.56;60.95
15314;BME280;7757;52.626;4.746;2023-03-14T02:57:13;98432.59;;;16.48;60.53
15314;BME280;7757;52.626;4.746;2023-03-14T02:59:59;98446.84;;;16.53;60.48
15314;BME280;7757;52.626;4.746;2023-03-14T03:02:46;98455.53;;;16.55;61.14
15314;BME280;7757;52.626;4.746;2023-03-14T03:05:32;98445.53;;;16.56;61.12
15314;BME280;7757;52.626;4.746;2023-03-14T03:08:17;98437.72;;;16.54;61.05
15314;BME280;7757;52.626;4.746;2023-03-14T03:11:04;98432.84;;;16.51;60.49
15314;BME280;7757;52.626;4.746;2023-03-14T03:13:49;98430.44;;;16.50;60.99
15314;BME280;7757;52.626;4.746;2023-03-14T03:16:34;98440.69;;;16.53;61.04
15314;BME280;7757;52.626;4.746;2023-03-14T03:19:21;98435.53;;;16.51;60.75
15314;BME280;7757;52.626;4.746;2023-03-14T03:22:06;98433.66;;;16.52;61.28
15314;BME280;7757;52.626;4.746;2023-03-14T03:24:52;98438.25;;;16.51;60.57
15314;BME280;7757;52.626;4.746;2023-03-14T03:27:37;98443.63;;;16.51;60.69
15314;BME280;7757;52.626;4.746;2023-03-14T03:30:23;98443.63;;;16.51;60.53
15314;BME280;7757;52.626;4.746;2023-03-14T03:33:08;98435.03;;;16.49;61.17
15314;BME280;7757;52.626;4.746;2023-03-14T03:35:55;98431.53;;;16.49;60.85
15314;BME280;7757;52.626;4.746;2023-03-14T03:38:41;98430.44;;;16.50;61.02
15314;BME280;7757;52.626;4.746;2023-03-14T03:41:26;98438.28;;;16.46;60.99
15314;BME280;7757;52.626;4.746;2023-03-14T03:44:11;98429.13;;;16.47;60.53
15314;BME280;7757;52.626;4.746;2023-03-14T03:46:57;98431.00;;;16.47;61.23
15314;BME280;7757;52.626;4.746;2023-03-14T03:49:43;98440.69;;;16.48;60.46
15314;BME280;7757;52.626;4.746;2023-03-14T03:52:29;98432.09;;;16.46;60.67
15314;BME280;7757;52.626;4.746;2023-03-14T03:55:15;98442.63;;;16.47;60.50
15314;BME280;7757;52.626;4.746;2023-03-14T03:58:00;98431.28;;;16.45;61.33
15314;BME280;7757;52.626;4.746;2023-03-14T04:00:46;98441.25;;;16.45;60.92
15314;BME280;7757;52.626;4.746;2023-03-14T04:03:31;98432.38;;;16.44;60.60
15314;BME280;7757;52.626;4.746;2023-03-14T04:06:17;98435.66;;;16.41;61.03
15314;BME280;7757;52.626;4.746;2023-03-14T04:09:03;98445.06;;;16.44;61.03
15314;BME280;7757;52.626;4.746;2023-03-14T04:11:49;98435.66;;;16.41;60.96
15314;BME280;7757;52.626;4.746;2023-03-14T04:14:34;98430.25;;;16.41;60.65
15314;BME280;7757;52.626;4.746;2023-03-14T04:17:20;98432.66;;;16.43;60.63
15314;BME280;7757;52.626;4.746;2023-03-14T04:20:10;98423.81;;;16.37;60.93
15314;BME280;7757;52.626;4.746;2023-03-14T04:22:56;98450.22;;;16.40;61.18
15314;BME280;7757;52.626;4.746;2023-03-14T04:25:42;98435.66;;;16.41;61.16
15314;BME280;7757;52.626;4.746;2023-03-14T04:28:28;98435.91;;;16.40;60.66
15314;BME280;7757;52.626;4.746;2023-03-14T04:31:15;98438.91;;;16.38;60.90
15314;BME280;7757;52.626;4.746;2023-03-14T04:34:00;98437.00;;;16.39;60.82
15314;BME280;7757;52.626;4.746;2023-03-14T04:36:46;98434.28;;;16.39;60.97
15314;BME280;7757;52.626;4.746;2023-03-14T04:39:31;98431.59;;;16.39;61.30
15314;BME280;7757;52.626;4.746;2023-03-14T04:42:18;98435.72;;;16.31;61.14
15314;BME280;7757;52.626;4.746;2023-03-14T04:45:05;98444.88;;;16.35;60.69
15314;BME280;7757;52.626;4.746;2023-03-14T04:47:50;98425.19;;;16.30;60.84
15314;BME280;7757;52.626;4.746;2023-03-14T04:50:35;98448.13;;;16.32;60.75
15314;BME280;7757;52.626;4.746;2023-03-14T04:53:21;98459.94;;;16.36;61.26
15314;BME280;7757;52.626;4.746;2023-03-14T04:56:07;98457.53;;;16.35;60.76
15314;BME280;7757;52.626;4.746;2023-03-14T04:58:53;98460.25;;;16.35;60.63
15314;BME280;7757;52.626;4.746;2023-03-14T05:01:39;98465.34;;;16.36;61.32
15314;BME280;7757;52.626;4.746;2023-03-14T05:04:24;98492.06;;;16.33;61.04
15314;BME280;7757;52.626;4.746;2023-03-14T05:07:10;98510.94;;;16.33;60.45
15314;BME280;7757;52.626;4.746;2023-03-14T05:09:55;98518.78;;;16.34;60.65
15314;BME280;7757;52.626;4.746;2023-03-14T05:12:41;98517.97;;;16.34;61.24
15314;BME280;7757;52.626;4.746;2023-03-14T05:15:27;98513.94;;;16.31;60.89
15314;BME280;7757;52.626;4.746;2023-03-14T05:18:13;98517.44;;;16.32;61.25
15314;BME280;7757;52.626;4.746;2023-03-14T05:20:58;98519.34;;;16.31;60.78
15314;BME280;7757;52.626;4.746;2023-03-14T05:23:44;98534.72;;;16.31;61.32
15314;BME280;7757;52.626;4.746;2023-03-14T05:26:29;98536.88;;;16.29;61.17
15314;BME280;7757;52.626;4.746;2023-03-14T05:29:14;98533.94;;;16.25;61.11
15314;BME280;7757;52.626;4.746;2023-03-14T05:32:01;98555.78;;;16.29;60.78
15314;BME280;7757;52.626;4.746;2023-03-14T05:34:47;98563.88;;;16.29;61.19
15314;BME280;7757;52.626;4.746;2023-03-14T05:37:32;98563.06;;;16.28;61.40
15314;BME280;7757;52.626;4.746;2023-03-14T05:40:18;98574.91;;;16.27;60.88
15314;BME280;7757;52.626;4.746;2023-03-14T05:43:03;98581.41;;;16.26;60.84
15314;BME280;7757;52.626;4.746;2023-03-14T05:45:51;98582.22;;;16.27;60.85
15314;BME280;7757;52.626;4.746;2023-03-14T05:48:38;98588.94;;;16.24;61.55
15314;BME280;7757;52.626;4.746;2023-03-14T05:51:23;98599.75;;;16.24;61.35
15314;BME280;7757;52.626;4.746;2023-03-14T05:54:08;98607.84;;;16.24;61.35
15314;BME280;7757;52.626;4.746;2023-03-14T05:56:54;98624.31;;;16.23;60.75
15314;BME280;7757;52.626;4.746;2023-03-14T05:59:39;98627.00;;;16.23;60.83
15314;BME280;7757;52.626;4.746;2023-03-14T06:02:24;98630.22;;;16.25;61.45
15314;BME280;7757;52.626;4.746;2023-03-14T06:05:11;98637.78;;;16.23;60.80
15314;BME280;7757;52.626;4.746;2023-03-14T06:07:56;98644.25;;;16.22;60.98
15314;BME280;7757;52.626;4.746;2023-03-14T06:10:42;98653.69;;;16.24;60.90
15314;BME280;7757;52.626;4.746;2023-03-14T06:13:27;98650.75;;;16.21;61.30
15314;BME280;7757;52.626;4.746;2023-03-14T06:16:13;98661.81;;;16.19;61.47
15314;BME280;7757;52.626;4.746;2023-03-14T06:18:58;98661.53;;;16.21;60.96
15314;BME280;7757;52.626;4.746;2023-03-14T06:21:46;98675.56;;;16.23;60.90
15314;BME280;7757;52.626;4.746;2023-03-14T06:24:31;98686.09;;;16.19;61.55
15314;BME280;7757;52.626;4.746;2023-03-14T06:27:16;98705.50;;;16.16;61.34
15314;BME280;7757;52.626;4.746;2023-03-14T06:30:02;98726.00;;;16.17;61.18
15314;BME280;7757;52.626;4.746;2023-03-14T06:32:47;98743.25;;;16.16;61.48
15314;BME280;7757;52.626;4.746;2023-03-14T06:35:33;98764.59;;;16.17;61.59
15314;BME280;7757;52.626;4.746;2023-03-14T06:38:20;98769.97;;;16.17;61.51
15314;BME280;7757;52.626;4.746;2023-03-14T06:41:06;98779.94;;;16.17;61.70
15314;BME280;7757;52.626;4.746;2023-03-14T06:43:52;98786.44;;;16.11;60.92
15314;BME280;7757;52.626;4.746;2023-03-14T06:46:37;98800.44;;;16.13;60.92
15314;BME280;7757;52.626;4.746;2023-03-14T06:49:23;98810.69;;;16.16;61.50
15314;BME280;7757;52.626;4.746;2023-03-14T06:52:08;98829.03;;;16.14;60.94
15314;BME280;7757;52.626;4.746;2023-03-14T06:54:55;98832.00;;;16.12;61.70
15314;BME280;7757;52.626;4.746;2023-03-14T06:57:40;98841.19;;;16.11;61.21
15314;BME280;7757;52.626;4.746;2023-03-14T07:00:26;98873.25;;;16.13;61.34
15314;BME280;7757;52.626;4.746;2023-03-14T07:03:13;98881.34;;;16.13;61.05
15314;BME280;7757;52.626;4.746;2023-03-14T07:05:59;98877.31;;;16.10;60.69
15314;BME280;7757;52.626;4.746;2023-03-14T07:08:44;98901.56;;;16.15;61.60
15314;BME280;7757;52.626;4.746;2023-03-14T07:11:32;98925.06;;;16.40;61.68
15314;BME280;7757;52.626;4.746;2023-03-14T07:14:18;98924.78;;;16.72;61.04
15314;BME280;7757;52.626;4.746;2023-03-14T07:17:03;98936.25;;;17.28;60.24
15314;BME280;7757;52.626;4.746;2023-03-14T07:19:49;98941.41;;;17.83;59.25
15314;BME280;7757;52.626;4.746;2023-03-14T07:22:34;98952.00;;;18.19;58.17
15314;BME280;7757;52.626;4.746;2023-03-14T07:25:19;98963.16;;;18.51;57.63
15314;BME280;7757;52.626;4.746;2023-03-14T07:28:06;98980.25;;;18.80;57.02
15314;BME280;7757;52.626;4.746;2023-03-14T07:30:51;98997.88;;;19.07;56.66
15314;BME280;7757;52.626;4.746;2023-03-14T07:33:37;99003.59;;;19.29;56.24
15314;BME280;7757;52.626;4.746;2023-03-14T07:36:23;99007.44;;;19.52;55.72
15314;BME280;7757;52.626;4.746;2023-03-14T07:39:08;99019.22;;;19.66;55.47
15314;BME280;7757;52.626;4.746;2023-03-14T07:41:54;99012.56;;;19.77;54.66
15314;BME280;7757;52.626;4.746;2023-03-14T07:44:40;99055.38;;;20.03;54.35
15314;BME280;7757;52.626;4.746;2023-03-14T07:47:26;99077.91;;;20.23;54.20
15314;BME280;7757;52.626;4.746;2023-03-14T07:50:11;99076.78;;;20.29;54.24
15314;BME280;7757;52.626;4.746;2023-03-14T07:52:57;99091.28;;;20.43;53.43
15314;BME280;7757;52.626;4.746;2023-03-14T07:55:42;99105.19;;;20.55;53.78
15314;BME280;7757;52.626;4.746;2023-03-14T07:58:27;99103.03;;;20.57;53.61
15314;BME280;7757;52.626;4.746;2023-03-14T08:01:14;99120.91;;;20.58;53.22
15314;BME280;7757;52.626;4.746;2023-03-14T08:03:59;99133.47;;;20.54;53.48
15314;BME280;7757;52.626;4.746;2023-03-14T08:06:45;99138.31;;;20.57;53.56
15314;BME280;7757;52.626;4.746;2023-03-14T08:09:30;99144.84;;;20.56;53.66
15314;BME280;7757;52.626;4.746;2023-03-14T08:12:16;99146.41;;;20.62;53.56
15314;BME280;7757;52.626;4.746;2023-03-14T08:15:01;99157.00;;;20.64;53.60
15314;BME280;7757;52.626;4.746;2023-03-14T08:17:48;99168.88;;;20.68;53.56
15314;BME280;7757;52.626;4.746;2023-03-14T08:20:35;99174.44;;;20.76;53.48
15314;BME280;7757;52.626;4.746;2023-03-14T08:23:21;99190.25;;;20.74;53.34
15314;BME280;7757;52.626;4.746;2023-03-14T08:26:06;99203.03;;;20.02;55.16
15314;BME280;7757;52.626;4.746;2023-03-14T08:28:52;99221.06;;;20.65;53.16
15314;BME280;7757;52.626;4.746;2023-03-14T08:31:37;99231.88;;;20.70;53.02
15314;BME280;7757;52.626;4.746;2023-03-14T08:34:24;99256.94;;;20.67;53.07
15314;BME280;7757;52.626;4.746;2023-03-14T08:37:10;99265.81;;;20.72;53.01
15314;BME280;7757;52.626;4.746;2023-03-14T08:39:55;99270.59;;;20.80;52.85
15314;BME280;7757;52.626;4.746;2023-03-14T08:42:40;99264.59;;;20.83;51.99
15314;BME280;7757;52.626;4.746;2023-03-14T08:45:26;99286.84;;;20.85;51.89
15314;BME280;7757;52.626;4.746;2023-03-14T08:48:11;99307.19;;;20.88;52.89
15314;BME280;7757;52.626;4.746;2023-03-14T08:51:04;99309.75;;;20.79;53.15
15314;BME280;7757;52.626;4.746;2023-03-14T08:53:50;99331.78;;;20.78;53.59
15314;BME280;7757;52.626;4.746;2023-03-14T08:56:35;99338.25;;;20.82;54.12
15314;BME280;7757;52.626;4.746;2023-03-14T08:59:21;99329.66;;;20.75;54.29
15314;BME280;7757;52.626;4.746;2023-03-14T09:02:09;99363.25;;;20.84;54.23
15314;BME280;7757;52.626;4.746;2023-03-14T09:04:55;99379.19;;;20.90;54.16
15314;BME280;7757;52.626;4.746;2023-03-14T09:07:42;99379.31;;;21.04;54.36
15314;BME280;7757;52.626;4.746;2023-03-14T09:10:27;99404.44;;;21.20;53.53
15314;BME280;7757;52.626;4.746;2023-03-14T09:13:13;99400.03;;;21.24;53.75
15314;BME280;7757;52.626;4.746;2023-03-14T09:15:58;99413.19;;;21.17;53.63
15314;BME280;7757;52.626;4.746;2023-03-14T09:18:43;99416.75;;;21.12;54.21
15314;BME280;7757;52.626;4.746;2023-03-14T09:21:32;99434.16;;;21.11;53.96
15314;BME280;7757;52.626;4.746;2023-03-14T09:24:18;99451.88;;;21.03;54.32
15314;BME280;7757;52.626;4.746;2023-03-14T09:27:04;99470.91;;;21.03;54.98
15314;BME280;7757;52.626;4.746;2023-03-14T09:29:49;99470.34;;;21.06;54.67
15314;BME280;7757;52.626;4.746;2023-03-14T09:32:35;99482.63;;;21.04;54.72
15314;BME280;7757;52.626;4.746;2023-03-14T09:35:20;99491.78;;;21.13;54.34
15314;BME280;7757;52.626;4.746;2023-03-14T09:38:05;99500.38;;;21.25;54.18
15314;BME280;7757;52.626;4.746;2023-03-14T09:40:53;99499.25;;;21.26;54.43
15314;BME280;7757;52.626;4.746;2023-03-14T09:43:40;99515.31;;;21.28;54.20
15314;BME280;7757;52.626;4.746;2023-03-14T09:46:28;99520.22;;;21.26;53.77
15314;BME280;7757;52.626;4.746;2023-03-14T09:49:21;99545.16;;;21.33;54.66
15314;BME280;7757;52.626;4.746;2023-03-14T09:52:11;99531.25;;;21.10;53.26
15314;BME280;7757;52.626;4.746;2023-03-14T09:54:59;99551.97;;;21.30;53.31
15314;BME280;7757;52.626;4.746;2023-03-14T09:57:49;99567.09;;;21.41;53.36
15314;BME280;7757;52.626;4.746;2023-03-14T10:00:37;99553.50;;;21.65;52.79
15314;BME280;7757;52.626;4.746;2023-03-14T10:03:25;99585.47;;;21.54;53.44
15314;BME280;7757;52.626;4.746;2023-03-14T10:06:12;99601.78;;;21.54;53.16
15314;BME280;7757;52.626;4.746;2023-03-14T10:08:57;99596.88;;;21.56;53.37
15314;BME280;7757;52.626;4.746;2023-03-14T10:11:43;99617.78;;;21.61;53.46
15314;BME280;7757;52.626;4.746;2023-03-14T10:14:32;99619.94;;;21.64;52.58
15314;BME280;7757;52.626;4.746;2023-03-14T10:17:19;99629.44;;;21.66;52.38
15314;BME280;7757;52.626;4.746;2023-03-14T10:20:05;99641.41;;;21.65;52.61
15314;BME280;7757;52.626;4.746;2023-03-14T10:22:54;99658.56;;;21.66;52.48
15314;BME280;7757;52.626;4.746;2023-03-14T10:25:41;99671.84;;;21.67;52.92
15314;BME280;7757;52.626;4.746;2023-03-14T10:28:28;99680.31;;;21.66;52.67
15314;BME280;7757;52.626;4.746;2023-03-14T10:31:16;99686.84;;;21.65;52.33
15314;BME280;7757;52.626;4.746;2023-03-14T10:34:03;99702.66;;;21.63;53.14
15314;BME280;7757;52.626;4.746;2023-03-14T10:36:55;99709.75;;;21.64;52.85
15314;BME280;7757;52.626;4.746;2023-03-14T10:39:45;99713.78;;;21.66;52.72
15314;BME280;7757;52.626;4.746;2023-03-14T10:42:32;99717.09;;;21.63;52.15
15314;BME280;7757;52.626;4.746;2023-03-14T10:45:29;99735.59;;;21.61;52.21
15314;BME280;7757;52.626;4.746;2023-03-14T10:48:22;99752.47;;;21.63;52.53
15314;BME280;7757;52.626;4.746;2023-03-14T10:51:10;99749.00;;;21.53;52.68
15314;BME280;7757;52.626;4.746;2023-03-14T10:53:57;99750.13;;;21.52;52.42
15314;BME280;7757;52.626;4.746;2023-03-14T10:56:43;99769.38;;;21.55;52.22
15314;BME280;7757;52.626;4.746;2023-03-14T10:59:33;99774.34;;;21.48;52.44
15314;BME280;7757;52.626;4.746;2023-03-14T11:02:42;99780.06;;;21.47;52.54
15314;BME280;7757;52.626;4.746;2023-03-14T11:05:38;99805.41;;;21.42;53.13
15314;BME280;7757;52.626;4.746;2023-03-14T11:08:31;99822.00;;;21.41;52.38
15314;BME280;7757;52.626;4.746;2023-03-14T11:11:19;99824.50;;;21.37;52.43
15314;BME280;7757;52.626;4.746;2023-03-14T11:14:14;99814.47;;;21.28;53.05
15314;BME280;7757;52.626;4.746;2023-03-14T11:17:07;99833.22;;;21.29;52.57
15314;BME280;7757;52.626;4.746;2023-03-14T11:20:08;99844.44;;;21.18;52.04
15314;BME280;7757;52.626;4.746;2023-03-14T11:22:59;99865.13;;;21.13;51.89
15314;BME280;7757;52.626;4.746;2023-03-14T11:25:55;99863.25;;;21.04;51.82
15314;BME280;7757;52.626;4.746;2023-03-14T11:28:48;99867.59;;;21.00;51.81
15314;BME280;7757;52.626;4.746;2023-03-14T11:31:35;99876.59;;;20.90;51.38
15314;BME280;7757;52.626;4.746;2023-03-14T11:34:27;99896.16;;;20.87;51.77
15314;BME280;7757;52.626;4.746;2023-03-14T11:37:16;99905.97;;;20.88;51.66
15314;BME280;7757;52.626;4.746;2023-03-14T11:40:13;99910.31;;;20.89;51.57
15314;BME280;7757;52.626;4.746;2023-03-14T11:43:04;99898.09;;;20.82;51.15
15314;BME280;7757;52.626;4.746;2023-03-14T11:45:51;99917.38;;;20.85;50.95
15314;BME280;7757;52.626;4.746;2023-03-14T11:48:43;99915.22;;;20.82;51.84
15314;BME280;7757;52.626;4.746;2023-03-14T11:51:34;99953.00;;;20.84;51.06
15314;BME280;7757;52.626;4.746;2023-03-14T11:54:24;99948.09;;;20.91;51.28
15314;BME280;7757;52.626;4.746;2023-03-14T11:57:16;99951.34;;;20.88;51.28
15314;BME280;7757;52.626;4.746;2023-03-14T12:00:05;99953.81;;;20.89;51.56
15314;BME280;7757;52.626;4.746;2023-03-14T12:03:02;99969.56;;;20.92;51.24
15314;BME280;7757;52.626;4.746;2023-03-14T12:05:59;99967.38;;;20.94;51.11
15314;BME280;7757;52.626;4.746;2023-03-14T12:08:49;99968.47;;;20.88;50.93
15314;BME280;7757;52.626;4.746;2023-03-14T12:11:38;99987.78;;;20.97;51.39
15314;BME280;7757;52.626;4.746;2023-03-14T12:14:28;99989.69;;;21.01;50.74
15314;BME280;7757;52.626;4.746;2023-03-14T12:17:20;99992.94;;;20.98;51.09
15314;BME280;7757;52.626;4.746;2023-03-14T12:20:16;100018.50;;;21.12;50.51
15314;BME280;7757;52.626;4.746;2023-03-14T12:23:03;99992.38;;;21.22;50.17
15314;BME280;7757;52.626;4.746;2023-03-14T12:26:06;100016.31;;;21.25;50.38
15314;BME280;7757;52.626;4.746;2023-03-14T12:29:11;100021.47;;;21.21;50.06
15314;BME280;7757;52.626;4.746;2023-03-14T12:32:12;100042.41;;;21.21;50.36
15314;BME280;7757;52.626;4.746;2023-03-14T12:35:32;100039.44;;;21.12;50.39
15314;BME280;7757;52.626;4.746;2023-03-14T12:38:24;100034.53;;;21.09;50.67
15314;BME280;7757;52.626;4.746;2023-03-14T12:41:16;100029.34;;;21.02;50.94
15314;BME280;7757;52.626;4.746;2023-03-14T12:47:49;100069.34;;;21.07;50.41
15314;BME280;7757;52.626;4.746;2023-03-14T12:50:39;100066.63;;;21.07;50.77
15314;BME280;7757;52.626;4.746;2023-03-14T12:59:57;100067.97;;;21.14;50.27
15314;BME280;7757;52.626;4.746;2023-03-14T13:02:44;100076.97;;;21.10;50.01
15314;BME280;7757;52.626;4.746;2023-03-14T13:05:33;100091.41;;;21.10;50.42
15314;BME280;7757;52.626;4.746;2023-03-14T13:08:34;100090.56;;;21.05;50.38
15314;BME280;7757;52.626;4.746;2023-03-14T13:11:19;100105.47;;;21.02;50.45
15314;BME280;7757;52.626;4.746;2023-03-14T13:14:10;100111.19;;;21.06;49.89
15314;BME280;7757;52.626;4.746;2023-03-14T13:16:55;100112.31;;;21.05;50.22
15314;BME280;7757;52.626;4.746;2023-03-14T13:19:40;100116.94;;;21.09;50.11
15314;BME280;7757;52.626;4.746;2023-03-14T13:22:30;100118.25;;;20.97;50.05
15314;BME280;7757;52.626;4.746;2023-03-14T13:25:17;100134.84;;;21.00;49.64
15314;BME280;7757;52.626;4.746;2023-03-14T13:28:05;100112.00;;;20.91;50.44
15314;BME280;7757;52.626;4.746;2023-03-14T13:30:56;100139.75;;;21.03;50.10
15314;BME280;7757;52.626;4.746;2023-03-14T13:33:42;100157.13;;;21.02;49.50
15314;BME280;7757;52.626;4.746;2023-03-14T13:36:28;100165.06;;;20.99;49.47
15314;BME280;7757;52.626;4.746;2023-03-14T13:39:17;100169.94;;;21.02;49.86
15314;BME280;7757;52.626;4.746;2023-03-14T13:42:03;100174.56;;;21.01;49.42
15314;BME280;7757;52.626;4.746;2023-03-14T13:44:50;100191.69;;;21.02;49.79
15314;BME280;7757;52.626;4.746;2023-03-14T13:47:38;100190.56;;;20.88;49.43
15314;BME280;7757;52.626;4.746;2023-03-14T13:50:23;100196.50;;;20.59;47.99
15314;BME280;7757;52.626;4.746;2023-03-14T13:53:10;100200.31;;;20.69;47.89
15314;BME280;7757;52.626;4.746;2023-03-14T13:56:01;100184.03;;;20.79;48.67
15314;BME280;7757;52.626;4.746;2023-03-14T13:58:47;100218.28;;;20.80;49.25
15314;BME280;7757;52.626;4.746;2023-03-14T14:01:34;100226.72;;;20.93;48.98
15314;BME280;7757;52.626;4.746;2023-03-14T14:04:21;100239.53;;;20.93;49.37
15314;BME280;7757;52.626;4.746;2023-03-14T14:07:09;100248.75;;;20.87;49.74
15314;BME280;7757;52.626;4.746;2023-03-14T14:09:56;100242.22;;;20.83;49.98
15314;BME280;7757;52.626;4.746;2023-03-14T14:12:48;100252.25;;;20.82;50.17
15314;BME280;7757;52.626;4.746;2023-03-14T14:15:39;100255.22;;;20.76;50.01
15314;BME280;7757;52.626;4.746;2023-03-14T14:18:27;100267.50;;;20.78;50.24
15314;BME280;7757;52.626;4.746;2023-03-14T14:21:14;100272.63;;;20.75;49.55
15314;BME280;7757;52.626;4.746;2023-03-14T14:24:00;100279.69;;;20.76;49.88
15314;BME280;7757;52.626;4.746;2023-03-14T14:26:47;100280.50;;;20.66;49.75
15314;BME280;7757;52.626;4.746;2023-03-14T14:29:37;100281.03;;;20.68;49.80
15314;BME280;7757;52.626;4.746;2023-03-14T14:32:22;100297.88;;;20.65;49.76
15314;BME280;7757;52.626;4.746;2023-03-14T14:35:10;100289.09;;;20.53;49.89
15314;BME280;7757;52.626;4.746;2023-03-14T14:38:11;100306.53;;;20.62;49.85
15314;BME280;7757;52.626;4.746;2023-03-14T14:41:00;100316.66;;;20.72;49.16
15314;BME280;7757;52.626;4.746;2023-03-14T14:43:46;100315.84;;;20.76;48.85
15314;BME280;7757;52.626;4.746;2023-03-14T14:46:36;100320.13;;;20.62;49.76
15314;BME280;7757;52.626;4.746;2023-03-14T14:49:28;100337.25;;;20.63;49.28
15314;BME280;7757;52.626;4.746;2023-03-14T14:52:15;100336.72;;;20.66;49.64
15314;BME280;7757;52.626;4.746;2023-03-14T14:55:02;100338.34;;;20.62;49.65
15314;BME280;7757;52.626;4.746;2023-03-14T14:57:49;100343.31;;;20.75;48.82
15314;BME280;7757;52.626;4.746;2023-03-14T15:00:39;100348.66;;;20.65;48.79
15314;BME280;7757;52.626;4.746;2023-03-14T15:03:28;100350.00;;;20.57;49.52
15314;BME280;7757;52.626;4.746;2023-03-14T15:06:15;100344.19;;;20.38;49.40
15314;BME280;7757;52.626;4.746;2023-03-14T15:09:01;100358.88;;;20.42;49.11